sensor_id;sensor_type;location;lat;lon;timestamp;pressure;altitude;pressure_sealevel;temperature;humidity
11676;BME280;5894;42.768;23.404;2023-02-28T00:00:13;96122.56;;;7.57;100.00
11676;BME280;5894;42.768;23.404;2023-02-28T00:02:43;96126.78;;;7.43;100.00
11676;BME280;5894;42.768;23.404;2023-02-28T00:05:12;96131.00;;;7.33;100.00
11676;BME280;5894;42.768;23.404;2023-02-28T00:07:39;96127.59;;;7.33;100.00
11676;BME280;5894;42.768;23.404;2023-02-28T00:10:07;96117.41;;;7.26;100.00
11676;BME280;5894;42.768;23.404;2023-02-28T00:12:35;96073.41;;;6.83;100.00
11676;BME280;5894;42.768;23.404;2023-02-28T00:15:05;96129.50;;;7.02;100.00
11676;BME280;5894;42.768;23.404;2023-02-28T00:17:32;96135.25;;;7.09;100.00
11676;BME280;5894;42.768;23.404;2023-02-28T00:19:59;96135.78;;;7.11;100.00
11676;BME280;5894;42.768;23.404;2023-02-28T00:22:36;96123.44;;;7.07;100.00
11676;BME280;5894;42.768;23.404;2023-02-28T00:25:04;96024.19;;;6.39;100.00
11676;BME280;5894;42.768;23.404;2023-02-28T00:27:32;96132.38;;;6.90;100.00
11676;BME280;5894;42.768;23.404;2023-02-28T00:29:59;96142.34;;;6.98;100.00
11676;BME280;5894;42.768;23.404;2023-02-28T00:32:27;96145.50;;;7.06;100.00
11676;BME280;5894;42.768;23.404;2023-02-28T00:34:55;96139.72;;;6.98;100.00
11676;BME280;5894;42.768;23.404;2023-02-28T00:37:22;96148.09;;;7.11;100.00
11676;BME280;5894;42.768;23.404;2023-02-28T00:39:49;96148.63;;;7.13;100.00
11676;BME280;5894;42.768;23.404;2023-02-28T00:42:16;96130.53;;;7.11;100.00
11676;BME280;5894;42.768;23.404;2023-02-28T00:44:42;96152.53;;;7.35;100.00
11676;BME280;5894;42.768;23.404;2023-02-28T00:47:10;96149.34;;;7.38;100.00
11676;BME280;5894;42.768;23.404;2023-02-28T00:49:39;96107.44;;;7.08;100.00
11676;BME280;5894;42.768;23.404;2023-02-28T00:52:08;96146.47;;;7.45;100.00
11676;BME280;5894;42.768;23.404;2023-02-28T00:54:35;96142.53;;;7.37;100.00
11676;BME280;5894;42.768;23.404;2023-02-28T00:57:02;96124.22;;;7.12;100.00
11676;BME280;5894;42.768;23.404;2023-02-28T00:59:31;96137.03;;;7.29;100.00
11676;BME280;5894;42.768;23.404;2023-02-28T01:01:58;96098.28;;;7.16;100.00
11676;BME280;5894;42.768;23.404;2023-02-28T01:04:25;96103.50;;;7.26;100.00
11676;BME280;5894;42.768;23.404;2023-02-28T01:06:53;96105.03;;;7.37;100.00
11676;BME280;5894;42.768;23.404;2023-02-28T01:09:20;96100.56;;;7.27;100.00
11676;BME280;5894;42.768;23.404;2023-02-28T01:11:47;96102.69;;;7.25;100.00
11676;BME280;5894;42.768;23.404;2023-02-28T01:14:15;96065.81;;;6.76;100.00
11676;BME280;5894;42.768;23.404;2023-02-28T01:16:44;96109.84;;;6.94;100.00
11676;BME280;5894;42.768;23.404;2023-02-28T01:19:11;96116.66;;;7.06;100.00
11676;BME280;5894;42.768;23.404;2023-02-28T01:21:38;96114.25;;;7.09;100.00
11676;BME280;5894;42.768;23.404;2023-02-28T01:24:07;96121.09;;;7.05;100.00
11676;BME280;5894;42.768;23.404;2023-02-28T01:26:35;96087.03;;;6.80;100.00
11676;BME280;5894;42.768;23.404;2023-02-28T01:29:02;96116.63;;;7.16;100.00
11676;BME280;5894;42.768;23.404;2023-02-28T01:31:29;96113.69;;;7.27;100.00
11676;BME280;5894;42.768;23.404;2023-02-28T01:33:56;96110.88;;;6.98;100.00
11676;BME280;5894;42.768;23.404;2023-02-28T01:36:26;96106.91;;;7.06;100.00
11676;BME280;5894;42.768;23.404;2023-02-28T01:38:55;96107.47;;;7.03;100.00
11676;BME280;5894;42.768;23.404;2023-02-28T01:41:25;96104.28;;;7.06;100.00
11676;BME280;5894;42.768;23.404;2023-02-28T01:43:56;96116.13;;;7.04;100.00
11676;BME280;5894;42.768;23.404;2023-02-28T01:46:23;96050.59;;;6.78;100.00
11676;BME280;5894;42.768;23.404;2023-02-28T01:48:58;96101.66;;;7.06;100.00
11676;BME280;5894;42.768;23.404;2023-02-28T01:51:30;96112.44;;;6.99;100.00
11676;BME280;5894;42.768;23.404;2023-02-28T01:54:02;96120.59;;;6.88;100.00
11676;BME280;5894;42.768;23.404;2023-02-28T01:56:36;96119.53;;;6.89;100.00
11676;BME280;5894;42.768;23.404;2023-02-28T01:59:04;96117.16;;;6.87;100.00
11676;BME280;5894;42.768;23.404;2023-02-28T02:01:31;96072.38;;;6.63;100.00
11676;BME280;5894;42.768;23.404;2023-02-28T02:04:01;96110.88;;;6.93;100.00
11676;BME280;5894;42.768;23.404;2023-02-28T02:06:32;96112.97;;;6.96;100.00
11676;BME280;5894;42.768;23.404;2023-02-28T02:09:00;96082.59;;;6.80;100.00
11676;BME280;5894;42.768;23.404;2023-02-28T02:11:28;96124.25;;;6.92;100.00
11676;BME280;5894;42.768;23.404;2023-02-28T02:14:12;96100.44;;;6.53;100.00
11676;BME280;5894;42.768;23.404;2023-02-28T02:16:51;96018.66;;;6.05;100.00
11676;BME280;5894;42.768;23.404;2023-02-28T02:19:39;96117.44;;;6.66;100.00
11676;BME280;5894;42.768;23.404;2023-02-28T02:22:33;96113.78;;;6.56;100.00
11676;BME280;5894;42.768;23.404;2023-02-28T02:25:19;96118.25;;;6.61;100.00
11676;BME280;5894;42.768;23.404;2023-02-28T02:28:09;96122.16;;;6.58;100.00
11676;BME280;5894;42.768;23.404;2023-02-28T02:31:13;96112.22;;;6.60;100.00
11676;BME280;5894;42.768;23.404;2023-02-28T02:34:24;96113.00;;;6.66;100.00
11676;BME280;5894;42.768;23.404;2023-02-28T02:36:59;96119.03;;;6.56;100.00
11676;BME280;5894;42.768;23.404;2023-02-28T02:39:32;96117.19;;;6.52;100.00
11676;BME280;5894;42.768;23.404;2023-02-28T02:42:05;96127.94;;;6.40;100.00
11676;BME280;5894;42.768;23.404;2023-02-28T02:44:43;96129.25;;;6.43;100.00
11676;BME280;5894;42.768;23.404;2023-02-28T02:47:15;96136.31;;;6.47;100.00
11676;BME280;5894;42.768;23.404;2023-02-28T02:49:47;96087.81;;;6.14;100.00
11676;BME280;5894;42.768;23.404;2023-02-28T02:52:18;96138.94;;;6.47;100.00
11676;BME280;5894;42.768;23.404;2023-02-28T02:54:49;96092.53;;;6.17;100.00
11676;BME280;5894;42.768;23.404;2023-02-28T02:57:22;96092.25;;;6.09;100.00
11676;BME280;5894;42.768;23.404;2023-02-28T02:59:53;96134.72;;;6.36;100.00
11676;BME280;5894;42.768;23.404;2023-02-28T03:02:22;96138.66;;;6.44;100.00
11676;BME280;5894;42.768;23.404;2023-02-28T03:04:53;96145.75;;;6.43;100.00
11676;BME280;5894;42.768;23.404;2023-02-28T03:07:26;96146.00;;;6.47;100.00
11676;BME280;5894;42.768;23.404;2023-02-28T03:09:53;96144.44;;;6.46;100.00
11676;BME280;5894;42.768;23.404;2023-02-28T03:12:23;96134.75;;;6.41;100.00
11676;BME280;5894;42.768;23.404;2023-02-28T03:14:56;96153.63;;;6.43;100.00
11676;BME280;5894;42.768;23.404;2023-02-28T03:17:46;96153.88;;;6.52;100.00
11676;BME280;5894;42.768;23.404;2023-02-28T03:20:27;96125.28;;;6.35;100.00
11676;BME280;5894;42.768;23.404;2023-02-28T03:23:03;96159.13;;;6.57;100.00
11676;BME280;5894;42.768;23.404;2023-02-28T03:25:38;96168.56;;;6.68;100.00
11676;BME280;5894;42.768;23.404;2023-02-28T03:28:13;96174.56;;;6.58;100.00
11676;BME280;5894;42.768;23.404;2023-02-28T03:30:45;96171.94;;;6.48;100.00
11676;BME280;5894;42.768;23.404;2023-02-28T03:33:22;96177.47;;;6.57;100.00
11676;BME280;5894;42.768;23.404;2023-02-28T03:35:54;96184.28;;;6.63;100.00
11676;BME280;5894;42.768;23.404;2023-02-28T03:38:28;96175.38;;;6.59;100.00
11676;BME280;5894;42.768;23.404;2023-02-28T03:41:00;96184.03;;;6.70;100.00
11676;BME280;5894;42.768;23.404;2023-02-28T03:43:31;96191.38;;;6.62;100.00
11676;BME280;5894;42.768;23.404;2023-02-28T03:46:02;96122.16;;;6.28;100.00
11676;BME280;5894;42.768;23.404;2023-02-28T03:48:35;96187.19;;;6.72;100.00
11676;BME280;5894;42.768;23.404;2023-02-28T03:51:08;96158.06;;;6.48;100.00
11676;BME280;5894;42.768;23.404;2023-02-28T03:53:39;96184.53;;;6.51;100.00
11676;BME280;5894;42.768;23.404;2023-02-28T03:56:14;96148.88;;;6.30;100.00
11676;BME280;5894;42.768;23.404;2023-02-28T03:58:47;96199.22;;;6.62;100.00
11676;BME280;5894;42.768;23.404;2023-02-28T04:01:19;96160.69;;;6.43;100.00
11676;BME280;5894;42.768;23.404;2023-02-28T04:03:47;96182.69;;;6.42;100.00
11676;BME280;5894;42.768;23.404;2023-02-28T04:06:17;96211.00;;;6.65;100.00
11676;BME280;5894;42.768;23.404;2023-02-28T04:08:45;96210.72;;;6.56;100.00
11676;BME280;5894;42.768;23.404;2023-02-28T04:11:19;96203.13;;;6.55;100.00
11676;BME280;5894;42.768;23.404;2023-02-28T04:13:46;96205.50;;;6.67;100.00
11676;BME280;5894;42.768;23.404;2023-02-28T04:16:13;96198.19;;;6.69;100.00
11676;BME280;5894;42.768;23.404;2023-02-28T04:18:41;96175.63;;;6.57;100.00
11676;BME280;5894;42.768;23.404;2023-02-28T04:21:09;96199.22;;;6.78;100.00
11676;BME280;5894;42.768;23.404;2023-02-28T04:23:37;96156.50;;;6.52;100.00
11676;BME280;5894;42.768;23.404;2023-02-28T04:26:04;96206.59;;;6.91;100.00
11676;BME280;5894;42.768;23.404;2023-02-28T04:28:32;96193.47;;;6.71;100.00
11676;BME280;5894;42.768;23.404;2023-02-28T04:31:01;96202.91;;;6.72;100.00
11676;BME280;5894;42.768;23.404;2023-02-28T04:33:30;96224.13;;;6.60;100.00
11676;BME280;5894;42.768;23.404;2023-02-28T04:36:01;96209.44;;;6.59;100.00
11676;BME280;5894;42.768;23.404;2023-02-28T04:38:29;96195.81;;;6.57;100.00
11676;BME280;5894;42.768;23.404;2023-02-28T04:41:00;96193.97;;;6.42;100.00
11676;BME280;5894;42.768;23.404;2023-02-28T04:43:28;96192.59;;;6.30;100.00
11676;BME280;5894;42.768;23.404;2023-02-28T04:45:55;96188.13;;;6.20;100.00
11676;BME280;5894;42.768;23.404;2023-02-28T04:48:23;96194.97;;;6.31;100.00
11676;BME280;5894;42.768;23.404;2023-02-28T04:50:51;96192.38;;;6.41;100.00
11676;BME280;5894;42.768;23.404;2023-02-28T04:53:18;96200.47;;;6.35;100.00
11676;BME280;5894;42.768;23.404;2023-02-28T04:55:45;96206.72;;;6.18;100.00
11676;BME280;5894;42.768;23.404;2023-02-28T04:58:14;96208.78;;;6.06;100.00
11676;BME280;5894;42.768;23.404;2023-02-28T05:00:41;96200.41;;;6.14;100.00
11676;BME280;5894;42.768;23.404;2023-02-28T05:03:08;96189.16;;;6.14;100.00
11676;BME280;5894;42.768;23.404;2023-02-28T05:05:35;96211.16;;;6.18;100.00
11676;BME280;5894;42.768;23.404;2023-02-28T05:08:04;96214.88;;;6.22;100.00
11676;BME280;5894;42.768;23.404;2023-02-28T05:10:31;96217.50;;;6.32;100.00
11676;BME280;5894;42.768;23.404;2023-02-28T05:12:58;96211.47;;;6.37;100.00
11676;BME280;5894;42.768;23.404;2023-02-28T05:15:26;96218.84;;;6.50;100.00
11676;BME280;5894;42.768;23.404;2023-02-28T05:17:53;96176.59;;;6.16;100.00
11676;BME280;5894;42.768;23.404;2023-02-28T05:20:20;96224.06;;;6.40;100.00
11676;BME280;5894;42.768;23.404;2023-02-28T05:22:47;96231.94;;;6.40;100.00
11676;BME280;5894;42.768;23.404;2023-02-28T05:25:17;96233.47;;;6.31;100.00
11676;BME280;5894;42.768;23.404;2023-02-28T05:27:45;96243.91;;;6.20;100.00
11676;BME280;5894;42.768;23.404;2023-02-28T05:30:12;96231.09;;;6.19;100.00
11676;BME280;5894;42.768;23.404;2023-02-28T05:32:41;96238.72;;;6.36;100.00
11676;BME280;5894;42.768;23.404;2023-02-28T05:35:09;96193.03;;;5.96;100.00
11676;BME280;5894;42.768;23.404;2023-02-28T05:37:36;96227.88;;;6.07;100.00
11676;BME280;5894;42.768;23.404;2023-02-28T05:40:05;96250.22;;;6.24;100.00
11676;BME280;5894;42.768;23.404;2023-02-28T05:42:33;96237.06;;;6.14;100.00
11676;BME280;5894;42.768;23.404;2023-02-28T05:45:00;96253.91;;;6.29;100.00
11676;BME280;5894;42.768;23.404;2023-02-28T05:47:26;96260.22;;;6.33;100.00
11676;BME280;5894;42.768;23.404;2023-02-28T05:49:55;96240.81;;;6.29;100.00
11676;BME280;5894;42.768;23.404;2023-02-28T05:52:21;96244.47;;;6.28;100.00
11676;BME280;5894;42.768;23.404;2023-02-28T05:54:48;96248.38;;;6.25;100.00
11676;BME280;5894;42.768;23.404;2023-02-28T05:57:15;96232.16;;;6.28;100.00
11676;BME280;5894;42.768;23.404;2023-02-28T05:59:42;96249.25;;;6.51;100.00
11676;BME280;5894;42.768;23.404;2023-02-28T06:02:10;96237.94;;;6.35;100.00
11676;BME280;5894;42.768;23.404;2023-02-28T06:04:38;96258.16;;;6.55;100.00
11676;BME280;5894;42.768;23.404;2023-02-28T06:07:07;96263.69;;;6.53;100.00
11676;BME280;5894;42.768;23.404;2023-02-28T06:09:35;96227.97;;;6.27;100.00
11676;BME280;5894;42.768;23.404;2023-02-28T06:12:04;96267.59;;;6.51;100.00
11676;BME280;5894;42.768;23.404;2023-02-28T06:14:33;96263.94;;;6.57;100.00
11676;BME280;5894;42.768;23.404;2023-02-28T06:17:00;96270.50;;;6.64;100.00
11676;BME280;5894;42.768;23.404;2023-02-28T06:19:27;96267.13;;;6.69;100.00
11676;BME280;5894;42.768;23.404;2023-02-28T06:21:56;96258.75;;;6.72;100.00
11676;BME280;5894;42.768;23.404;2023-02-28T06:24:25;96274.50;;;6.82;100.00
11676;BME280;5894;42.768;23.404;2023-02-28T06:26:53;96267.94;;;6.80;100.00
11676;BME280;5894;42.768;23.404;2023-02-28T06:29:20;96275.56;;;6.91;100.00
11676;BME280;5894;42.768;23.404;2023-02-28T06:31:47;96277.09;;;6.87;100.00
11676;BME280;5894;42.768;23.404;2023-02-28T06:34:14;96283.13;;;6.88;100.00
11676;BME280;5894;42.768;23.404;2023-02-28T06:36:41;96275.75;;;6.70;100.00
11676;BME280;5894;42.768;23.404;2023-02-28T06:39:09;96288.91;;;6.85;100.00
11676;BME280;5894;42.768;23.404;2023-02-28T06:41:37;96284.72;;;6.84;100.00
11676;BME280;5894;42.768;23.404;2023-02-28T06:44:05;96222.22;;;6.35;100.00
11676;BME280;5894;42.768;23.404;2023-02-28T06:46:40;96279.16;;;6.65;100.00
11676;BME280;5894;42.768;23.404;2023-02-28T06:49:08;96274.44;;;6.62;100.00
11676;BME280;5894;42.768;23.404;2023-02-28T06:51:36;96278.09;;;6.61;100.00
11676;BME280;5894;42.768;23.404;2023-02-28T06:54:03;96278.66;;;6.63;100.00
11676;BME280;5894;42.768;23.404;2023-02-28T06:56:30;96216.16;;;6.19;100.00
11676;BME280;5894;42.768;23.404;2023-02-28T06:58:58;96271.78;;;6.57;100.00
11676;BME280;5894;42.768;23.404;2023-02-28T07:01:25;96274.41;;;6.57;100.00
11676;BME280;5894;42.768;23.404;2023-02-28T07:03:53;96270.22;;;6.51;100.00
11676;BME280;5894;42.768;23.404;2023-02-28T07:06:21;96261.78;;;6.39;100.00
11676;BME280;5894;42.768;23.404;2023-02-28T07:08:49;96273.88;;;6.55;100.00
11676;BME280;5894;42.768;23.404;2023-02-28T07:11:16;96271.53;;;6.58;100.00
11676;BME280;5894;42.768;23.404;2023-02-28T07:13:43;96276.28;;;6.61;100.00
11676;BME280;5894;42.768;23.404;2023-02-28T07:16:11;96267.63;;;6.61;100.00
11676;BME280;5894;42.768;23.404;2023-02-28T07:18:38;96241.41;;;6.51;100.00
11676;BME280;5894;42.768;23.404;2023-02-28T07:21:06;96248.47;;;6.50;100.00
11676;BME280;5894;42.768;23.404;2023-02-28T07:23:34;96255.59;;;6.70;100.00
11676;BME280;5894;42.768;23.404;2023-02-28T07:26:03;96275.53;;;6.86;100.00
11676;BME280;5894;42.768;23.404;2023-02-28T07:28:30;96269.53;;;6.91;100.00
11676;BME280;5894;42.768;23.404;2023-02-28T07:31:03;96269.25;;;6.97;100.00
11676;BME280;5894;42.768;23.404;2023-02-28T07:33:31;96270.03;;;6.98;100.00
11676;BME280;5894;42.768;23.404;2023-02-28T07:36:03;96275.28;;;7.08;100.00
11676;BME280;5894;42.768;23.404;2023-02-28T07:38:30;96276.34;;;7.12;100.00
11676;BME280;5894;42.768;23.404;2023-02-28T07:40:57;96268.75;;;7.21;100.00
11676;BME280;5894;42.768;23.404;2023-02-28T07:43:24;96270.06;;;7.23;100.00
11676;BME280;5894;42.768;23.404;2023-02-28T07:45:51;96187.44;;;6.85;100.00
11676;BME280;5894;42.768;23.404;2023-02-28T07:48:18;96269.53;;;7.52;100.00
11676;BME280;5894;42.768;23.404;2023-02-28T07:50:54;96269.00;;;7.65;100.00
11676;BME280;5894;42.768;23.404;2023-02-28T07:53:21;96265.81;;;7.73;100.00
11676;BME280;5894;42.768;23.404;2023-02-28T07:55:48;96256.34;;;7.82;100.00
11676;BME280;5894;42.768;23.404;2023-02-28T07:58:15;96247.44;;;7.73;100.00
11676;BME280;5894;42.768;23.404;2023-02-28T08:00:42;96249.25;;;7.88;100.00
11676;BME280;5894;42.768;23.404;2023-02-28T08:03:10;96268.88;;;8.10;100.00
11676;BME280;5894;42.768;23.404;2023-02-28T08:05:38;96267.56;;;8.18;100.00
11676;BME280;5894;42.768;23.404;2023-02-28T08:08:07;96277.75;;;8.30;100.00
11676;BME280;5894;42.768;23.404;2023-02-28T08:10:34;96264.88;;;8.38;100.00
11676;BME280;5894;42.768;23.404;2023-02-28T08:13:01;96267.25;;;8.40;100.00
11676;BME280;5894;42.768;23.404;2023-02-28T08:15:28;96275.09;;;8.45;100.00
11676;BME280;5894;42.768;23.404;2023-02-28T08:17:55;96274.25;;;8.55;100.00
11676;BME280;5894;42.768;23.404;2023-02-28T08:20:22;96275.56;;;8.57;100.00
11676;BME280;5894;42.768;23.404;2023-02-28T08:22:49;96277.88;;;8.64;100.00
11676;BME280;5894;42.768;23.404;2023-02-28T08:25:17;96202.13;;;8.17;100.00
11676;BME280;5894;42.768;23.404;2023-02-28T08:27:44;96266.56;;;8.68;100.00
11676;BME280;5894;42.768;23.404;2023-02-28T08:30:12;96199.72;;;8.25;100.00
11676;BME280;5894;42.768;23.404;2023-02-28T08:32:39;96285.44;;;8.75;100.00
11676;BME280;5894;42.768;23.404;2023-02-28T08:35:07;96275.44;;;8.77;100.00
11676;BME280;5894;42.768;23.404;2023-02-28T08:37:35;96283.28;;;8.88;100.00
11676;BME280;5894;42.768;23.404;2023-02-28T08:40:02;96279.84;;;8.92;100.00
11676;BME280;5894;42.768;23.404;2023-02-28T08:42:32;96277.72;;;8.94;100.00
11676;BME280;5894;42.768;23.404;2023-02-28T08:44:59;96285.00;;;9.07;100.00
11676;BME280;5894;42.768;23.404;2023-02-28T08:47:25;96287.56;;;9.17;100.00
11676;BME280;5894;42.768;23.404;2023-02-28T08:49:52;96290.09;;;9.28;100.00
11676;BME280;5894;42.768;23.404;2023-02-28T08:52:19;96215.41;;;8.90;100.00
11676;BME280;5894;42.768;23.404;2023-02-28T08:54:46;96245.72;;;9.16;100.00
11676;BME280;5894;42.768;23.404;2023-02-28T08:57:13;96282.13;;;9.43;100.00
11676;BME280;5894;42.768;23.404;2023-02-28T08:59:41;96267.66;;;9.40;100.00
11676;BME280;5894;42.768;23.404;2023-02-28T09:02:09;96281.53;;;9.46;100.00
11676;BME280;5894;42.768;23.404;2023-02-28T09:04:38;96283.38;;;9.45;100.00
11676;BME280;5894;42.768;23.404;2023-02-28T09:07:05;96286.53;;;9.47;100.00
11676;BME280;5894;42.768;23.404;2023-02-28T09:09:32;96285.19;;;9.50;100.00
11676;BME280;5894;42.768;23.404;2023-02-28T09:11:59;96284.38;;;9.54;100.00
11676;BME280;5894;42.768;23.404;2023-02-28T09:14:25;96274.31;;;9.62;100.00
11676;BME280;5894;42.768;23.404;2023-02-28T09:16:54;96235.59;;;9.33;100.00
11676;BME280;5894;42.768;23.404;2023-02-28T09:19:21;96276.09;;;9.66;100.00
11676;BME280;5894;42.768;23.404;2023-02-28T09:21:47;96276.84;;;9.72;100.00
11676;BME280;5894;42.768;23.404;2023-02-28T09:24:14;96277.09;;;9.75;100.00
11676;BME280;5894;42.768;23.404;2023-02-28T09:26:41;96266.66;;;9.89;100.00
11676;BME280;5894;42.768;23.404;2023-02-28T09:29:08;96281.00;;;10.07;100.00
11676;BME280;5894;42.768;23.404;2023-02-28T09:31:35;96274.59;;;10.13;100.00
11676;BME280;5894;42.768;23.404;2023-02-28T09:34:03;96282.44;;;10.18;100.00
11676;BME280;5894;42.768;23.404;2023-02-28T09:36:30;96274.50;;;10.23;100.00
11676;BME280;5894;42.768;23.404;2023-02-28T09:38:58;96277.06;;;10.28;100.00
11676;BME280;5894;42.768;23.404;2023-02-28T09:41:26;96277.97;;;10.42;100.00
11676;BME280;5894;42.768;23.404;2023-02-28T09:43:57;96246.56;;;10.22;100.00
11676;BME280;5894;42.768;23.404;2023-02-28T09:46:29;96239.59;;;10.31;100.00
11676;BME280;5894;42.768;23.404;2023-02-28T09:49:00;96273.06;;;10.54;100.00
11676;BME280;5894;42.768;23.404;2023-02-28T09:51:39;96284.84;;;10.62;100.00
11676;BME280;5894;42.768;23.404;2023-02-28T09:54:10;96270.81;;;10.66;100.00
11676;BME280;5894;42.768;23.404;2023-02-28T09:56:43;96281.28;;;10.72;100.00
11676;BME280;5894;42.768;23.404;2023-02-28T09:59:16;96257.25;;;10.54;100.00
11676;BME280;5894;42.768;23.404;2023-02-28T10:01:50;96276.28;;;10.70;100.00
11676;BME280;5894;42.768;23.404;2023-02-28T10:04:34;96268.22;;;10.80;100.00
11676;BME280;5894;42.768;23.404;2023-02-28T10:07:13;96267.34;;;10.90;100.00
11676;BME280;5894;42.768;23.404;2023-02-28T10:09:45;96271.47;;;10.96;100.00
11676;BME280;5894;42.768;23.404;2023-02-28T10:12:14;96268.41;;;10.89;100.00
11676;BME280;5894;42.768;23.404;2023-02-28T10:14:45;96265.53;;;10.85;100.00
11676;BME280;5894;42.768;23.404;2023-02-28T10:17:16;96269.66;;;10.91;100.00
11676;BME280;5894;42.768;23.404;2023-02-28T10:19:53;96235.44;;;10.68;100.00
11676;BME280;5894;42.768;23.404;2023-02-28T10:22:27;96214.06;;;10.69;100.00
11676;BME280;5894;42.768;23.404;2023-02-28T10:24:57;96242.56;;;10.86;100.00
11676;BME280;5894;42.768;23.404;2023-02-28T10:27:30;96263.25;;;10.97;100.00
11676;BME280;5894;42.768;23.404;2023-02-28T10:29:58;96244.56;;;10.94;100.00
11676;BME280;5894;42.768;23.404;2023-02-28T10:32:29;96252.59;;;11.02;100.00
11676;BME280;5894;42.768;23.404;2023-02-28T10:34:59;96243.75;;;11.12;100.00
11676;BME280;5894;42.768;23.404;2023-02-28T10:37:28;96243.34;;;11.05;100.00
11676;BME280;5894;42.768;23.404;2023-02-28T10:39:54;96243.97;;;11.16;100.00
11676;BME280;5894;42.768;23.404;2023-02-28T10:42:24;96244.53;;;11.13;100.00
11676;BME280;5894;42.768;23.404;2023-02-28T10:45:06;96237.53;;;11.22;100.00
11676;BME280;5894;42.768;23.404;2023-02-28T10:47:35;96237.47;;;11.27;100.00
11676;BME280;5894;42.768;23.404;2023-02-28T10:50:05;96229.13;;;11.20;100.00
11676;BME280;5894;42.768;23.404;2023-02-28T10:52:38;96229.16;;;11.33;100.00
11676;BME280;5894;42.768;23.404;2023-02-28T10:55:21;96208.47;;;11.08;100.00
11676;BME280;5894;42.768;23.404;2023-02-28T10:57:48;96223.19;;;11.28;100.00
11676;BME280;5894;42.768;23.404;2023-02-28T11:00:18;96217.91;;;11.28;100.00
11676;BME280;5894;42.768;23.404;2023-02-28T11:02:47;96195.38;;;11.17;100.00
11676;BME280;5894;42.768;23.404;2023-02-28T11:05:32;96209.72;;;11.29;100.00
11676;BME280;5894;42.768;23.404;2023-02-28T11:08:05;96221.06;;;11.30;100.00
11676;BME280;5894;42.768;23.404;2023-02-28T11:10:33;96201.97;;;11.33;100.00
11676;BME280;5894;42.768;23.404;2023-02-28T11:13:00;96123.06;;;10.85;100.00
11676;BME280;5894;42.768;23.404;2023-02-28T11:15:29;96202.41;;;11.40;100.00
11676;BME280;5894;42.768;23.404;2023-02-28T11:17:59;96203.97;;;11.41;100.00
11676;BME280;5894;42.768;23.404;2023-02-28T11:20:29;96202.78;;;11.47;100.00
11676;BME280;5894;42.768;23.404;2023-02-28T11:22:57;96196.84;;;11.55;100.00
11676;BME280;5894;42.768;23.404;2023-02-28T11:25:30;96184.19;;;11.38;100.00
11676;BME280;5894;42.768;23.404;2023-02-28T11:27:59;96198.28;;;11.48;100.00
11676;BME280;5894;42.768;23.404;2023-02-28T11:30:35;96190.75;;;11.41;100.00
11676;BME280;5894;42.768;23.404;2023-02-28T11:33:21;96190.63;;;11.32;100.00
11676;BME280;5894;42.768;23.404;2023-02-28T11:35:49;96185.94;;;11.29;100.00
11676;BME280;5894;42.768;23.404;2023-02-28T11:38:16;96185.16;;;11.29;100.00
11676;BME280;5894;42.768;23.404;2023-02-28T11:40:49;96173.09;;;11.23;100.00
11676;BME280;5894;42.768;23.404;2023-02-28T11:43:26;96196.13;;;11.36;100.00
11676;BME280;5894;42.768;23.404;2023-02-28T11:46:15;96184.38;;;11.42;100.00
11676;BME280;5894;42.768;23.404;2023-02-28T11:48:58;96186.16;;;11.47;100.00
11676;BME280;5894;42.768;23.404;2023-02-28T11:51:32;96183.53;;;11.47;100.00
11676;BME280;5894;42.768;23.404;2023-02-28T11:54:25;96190.38;;;11.48;100.00
11676;BME280;5894;42.768;23.404;2023-02-28T11:56:58;96190.75;;;11.41;100.00
11676;BME280;5894;42.768;23.404;2023-02-28T11:59:46;96184.47;;;11.37;100.00
11676;BME280;5894;42.768;23.404;2023-02-28T12:02:23;96181.91;;;11.32;100.00
11676;BME280;5894;42.768;23.404;2023-02-28T12:04:59;96185.94;;;11.43;100.00
11676;BME280;5894;42.768;23.404;2023-02-28T12:07:37;96185.16;;;11.43;100.00
11676;BME280;5894;42.768;23.404;2023-02-28T12:10:19;96179.81;;;11.48;100.00
11676;BME280;5894;42.768;23.404;2023-02-28T12:12:58;96180.81;;;11.52;100.00
11676;BME280;5894;42.768;23.404;2023-02-28T12:15:44;96178.72;;;11.49;100.00
11676;BME280;5894;42.768;23.404;2023-02-28T12:18:42;96166.78;;;11.37;100.00
11676;BME280;5894;42.768;23.404;2023-02-28T12:21:18;96180.00;;;11.51;100.00
11676;BME280;5894;42.768;23.404;2023-02-28T12:24:03;96175.03;;;11.50;100.00
11676;BME280;5894;42.768;23.404;2023-02-28T12:26:37;96178.56;;;11.59;100.00
11676;BME280;5894;42.768;23.404;2023-02-28T12:29:13;96119.91;;;11.16;100.00
11676;BME280;5894;42.768;23.404;2023-02-28T12:31:46;96171.69;;;11.58;100.00
11676;BME280;5894;42.768;23.404;2023-02-28T12:34:19;96166.69;;;11.56;100.00
11676;BME280;5894;42.768;23.404;2023-02-28T12:36:47;96095.56;;;11.19;100.00
11676;BME280;5894;42.768;23.404;2023-02-28T12:39:19;96165.72;;;11.66;100.00
11676;BME280;5894;42.768;23.404;2023-02-28T12:41:53;96165.38;;;11.72;100.00
11676;BME280;5894;42.768;23.404;2023-02-28T12:44:28;96170.66;;;11.86;100.00
11676;BME280;5894;42.768;23.404;2023-02-28T12:46:59;96102.81;;;11.40;100.00
11676;BME280;5894;42.768;23.404;2023-02-28T12:49:30;96167.91;;;11.77;100.00
11676;BME280;5894;42.768;23.404;2023-02-28T12:51:59;96160.53;;;11.74;100.00
11676;BME280;5894;42.768;23.404;2023-02-28T12:54:32;96144.22;;;11.59;100.00
11676;BME280;5894;42.768;23.404;2023-02-28T12:57:08;96152.53;;;11.52;100.00
11676;BME280;5894;42.768;23.404;2023-02-28T12:59:41;96157.81;;;11.52;100.00
11676;BME280;5894;42.768;23.404;2023-02-28T13:08:20;96159.94;;;11.36;100.00
11676;BME280;5894;42.768;23.404;2023-02-28T13:10:51;96167.06;;;11.36;100.00
11676;BME280;5894;42.768;23.404;2023-02-28T13:13:21;96157.28;;;11.36;100.00
11676;BME280;5894;42.768;23.404;2023-02-28T13:16:03;96163.56;;;11.40;100.00
11676;BME280;5894;42.768;23.404;2023-02-28T13:18:36;96115.69;;;11.15;100.00
11676;BME280;5894;42.768;23.404;2023-02-28T13:21:06;96157.50;;;11.40;100.00